Garland's Hourly Summary for Tuesday, March 14, 2017
Hour Temp
(f)
RH
(%)
Solar Rad.
(MJ/m2)
Rainfall
(in)
Wind
(mph)
3/14/2017 12:00 AM 44 37 0 0 5.4
3/14/2017 1:00 AM 42 41 0 0 5.3
3/14/2017 2:00 AM 41 44 0 0 3.06
3/14/2017 3:00 AM 39 48 0 0 2.19
3/14/2017 4:00 AM 38 53 0 0 1.95
3/14/2017 5:00 AM 38 54 0 0 2.01
3/14/2017 6:00 AM 37 56 0 0 1.4
3/14/2017 7:00 AM 36 60 0 0 2.3
3/14/2017 8:00 AM 35 61 0.04 0 0.4
3/14/2017 9:00 AM 38 58 0.58 0 1.89
3/14/2017 10:00 AM 41 48 1.23 0 4.41
3/14/2017 11:00 AM 44 40 1.87 0 3.43
3/14/2017 12:00 PM 47 37 2.44 0 3.45
3/14/2017 1:00 PM 49 34 2.71 0 3.04
3/14/2017 2:00 PM 52 30 2.81 0 3.11
3/14/2017 3:00 PM 55 27 2.61 0 3.52
3/14/2017 4:00 PM 57 25 2.31 0 5.01
3/14/2017 5:00 PM 59 27 1.79 0 4.91
3/14/2017 6:00 PM 59 28 0.92 0 4.07
3/14/2017 7:00 PM 58 29 0.15 0 3.04
3/14/2017 8:00 PM 56 32 0.03 0 3.04
3/14/2017 9:00 PM 54 38 0 0 2.34
3/14/2017 10:00 PM 53 42 0 0 1.58
3/14/2017 11:00 PM 51 46 0 0 2.56
Data Summary 46 41 19.49 0.00 3.06